メインページ
METAR-TAF:

METAR-TAF

空港 :

トルマチョーヴォ空港

ノヴォシビルスク, ロシア

緯度: 55-01N, 経度: 082-38E, 海抜: 111m

現時点の気象観測

当レポートは41分前の01:30(UTC)に作成
南西の風 12kt
気温 -8°C
湿度 79%
気圧 1025 hPa
視程10km以上
高度1600ftの曇り

METAR: UNNT 150130Z 22006MPS 9999 OVC016 M08/M11 Q1025 R25/490150 R16/490150 NOSIG RMK QFE759/1012

時間: 09:11 (02:11 UTC)

予報

当レポートは3時間11分前の23:00(UTC)に作成
予報は15日の 00時(UTC)から 15日の 24時(UTC)まで有効
南西の風 12kt、最大23ktの突風を伴う
視程10km以上
高度1600ftの千切れ雲あり, 積乱雲.
低い地吹雪
15日の 00時(UTC)から 15日の 03時(UTC)まで一時的に
高度1100ftの千切れ雲あり, 積乱雲.
15日の 15時(UTC)から 15日の 24時(UTC)まで一時的に
視程: 3100m
高度1100ftの千切れ雲あり, 積乱雲.
弱いにわか雪, 靄

TAF: UNNT 142300Z 1500/1524 22006G12MPS 9999 DRSN BKN016CB TEMPO 1500/1503 BKN011CB TEMPO 1515/1524 3100 -SHSN BR BKN011CB

4,000以上の空港の気象観測と天気予報(METAR報とTAF報)

利用可能な観測所は地図上に黄色い丸と赤い丸で示す。

丸の上にカーソルを重ねると観測所名を参照できる。

次にクリックすると気象観測と天気予報を参照できる。

マップの切り替え:黒色「×」印の緑ボタンをクリックして拡大、「-」印の緑ボタンをクリックして縮小、緑色の三角印をクリックして隣りの地図に切り替え


METAR-TAF: